createdAt,value
2023-02-18T00:00:10.190Z,15.03
2023-02-18T00:02:57.218Z,15.87
2023-02-18T00:05:24.192Z,11.47
2023-02-18T00:07:51.390Z,19.53
2023-02-18T00:10:18.393Z,17.63
2023-02-18T00:12:45.550Z,16.57
2023-02-18T00:15:12.484Z,15.33
2023-02-18T00:17:39.809Z,14.37
2023-02-18T00:20:07.687Z,19.23
2023-02-18T00:22:35.273Z,14.17
2023-02-18T00:25:02.151Z,18.43
2023-02-18T00:27:29.256Z,18.67
2023-02-18T00:29:56.134Z,14.83
2023-02-18T00:32:23.270Z,12.63
2023-02-18T00:34:50.097Z,12.37
2023-02-18T00:37:17.259Z,19.60
2023-02-18T00:39:44.387Z,18.20
2023-02-18T00:42:11.535Z,14.00
2023-02-18T00:44:38.477Z,15.40
2023-02-18T00:47:05.527Z,24.60
2023-02-18T00:49:32.451Z,20.60
2023-02-18T00:51:59.578Z,19.90
2023-02-18T00:54:26.315Z,12.53
2023-02-18T00:56:53.406Z,15.00
2023-02-18T00:59:20.449Z,20.37
2023-02-18T01:01:47.518Z,12.70
2023-02-18T01:04:14.299Z,14.37
2023-02-18T01:06:41.466Z,12.77
2023-02-18T01:09:08.638Z,22.63
2023-02-18T01:11:35.874Z,13.13
2023-02-18T01:14:03.391Z,18.70
2023-02-18T01:16:30.678Z,18.60
2023-02-18T01:18:57.558Z,14.80
2023-02-18T01:21:26.336Z,14.03
2023-02-18T01:23:53.123Z,16.73
2023-02-18T01:26:20.288Z,14.77
2023-02-18T01:28:47.106Z,19.03
2023-02-18T01:31:15.065Z,9.83
2023-02-18T01:33:42.178Z,19.30
2023-02-18T01:36:11.889Z,15.93
2023-02-18T01:38:39.392Z,15.50
2023-02-18T01:41:07.055Z,17.20
2023-02-18T01:43:34.011Z,12.97
2023-02-18T01:46:16.109Z,15.73
2023-02-18T01:48:56.804Z,13.63
2023-02-18T01:51:25.726Z,9.63
2023-02-18T01:54:04.703Z,15.27
2023-02-18T01:56:34.141Z,19.13
2023-02-18T01:59:03.926Z,20.20
2023-02-18T02:01:32.296Z,16.87
2023-02-18T02:03:59.350Z,15.27
2023-02-18T02:06:27.073Z,17.93
2023-02-18T02:08:59.521Z,11.00
2023-02-18T02:11:57.331Z,12.30
2023-02-18T02:14:49.135Z,20.40
2023-02-18T02:17:34.738Z,16.80
2023-02-18T02:20:34.001Z,21.77
2023-02-18T02:23:14.153Z,16.13
2023-02-18T02:26:02.601Z,11.50
2023-02-18T02:28:55.266Z,16.00
2023-02-18T02:31:46.073Z,20.67
2023-02-18T02:34:41.762Z,15.73
2023-02-18T02:37:25.360Z,16.77
2023-02-18T02:39:57.948Z,13.10
2023-02-18T02:42:41.489Z,15.70
2023-02-18T02:45:50.394Z,15.23
2023-02-18T02:48:40.611Z,13.73
2023-02-18T02:51:15.401Z,13.73
2023-02-18T02:53:44.062Z,18.00
2023-02-18T02:56:15.846Z,17.70
2023-02-18T02:58:54.502Z,15.00
2023-02-18T03:01:46.699Z,15.87
2023-02-18T03:04:37.339Z,13.03
2023-02-18T03:07:23.210Z,13.63
2023-02-18T03:10:15.877Z,12.27
2023-02-18T03:12:48.927Z,14.47
2023-02-18T03:15:41.635Z,19.30
2023-02-18T03:18:26.480Z,15.17
2023-02-18T03:20:53.260Z,14.17
2023-02-18T03:23:27.151Z,16.20
2023-02-18T03:25:56.952Z,16.17
2023-02-18T03:28:28.622Z,12.60
2023-02-18T03:31:07.152Z,11.90
2023-02-18T03:33:42.800Z,11.87
2023-02-18T03:36:11.288Z,17.73
2023-02-18T03:38:44.152Z,12.43
2023-02-18T03:41:12.540Z,17.57
2023-02-18T03:43:41.616Z,16.83
2023-02-18T03:46:08.915Z,9.20
2023-02-18T03:48:36.103Z,19.70
2023-02-18T03:51:02.957Z,15.03
2023-02-18T03:53:30.094Z,10.87
2023-02-18T03:55:56.854Z,12.40
2023-02-18T03:58:24.012Z,8.97
2023-02-18T04:00:50.774Z,12.87
2023-02-18T04:03:17.839Z,17.67
2023-02-18T04:05:44.633Z,16.27
2023-02-18T04:08:11.617Z,15.53
2023-02-18T04:10:38.422Z,17.10
2023-02-18T04:13:05.458Z,15.80
2023-02-18T04:15:32.570Z,13.83
2023-02-18T04:17:59.514Z,19.53
2023-02-18T04:20:26.514Z,20.63
2023-02-18T04:22:53.548Z,14.33
2023-02-18T04:25:20.325Z,14.87
2023-02-18T04:27:47.468Z,19.63
2023-02-18T04:30:14.535Z,15.33
2023-02-18T04:32:41.839Z,19.20
2023-02-18T04:35:08.693Z,10.33
2023-02-18T04:37:35.686Z,14.07
2023-02-18T04:40:02.461Z,14.80
2023-02-18T04:42:29.655Z,11.77
2023-02-18T04:44:56.396Z,24.53
2023-02-18T04:47:23.827Z,22.17
2023-02-18T04:49:50.667Z,16.87
2023-02-18T04:52:17.779Z,15.47
2023-02-18T04:54:44.480Z,12.53
2023-02-18T04:57:11.799Z,17.47
2023-02-18T04:59:38.878Z,13.93
2023-02-18T05:02:06.096Z,14.27
2023-02-18T05:04:32.915Z,21.67
2023-02-18T05:06:59.959Z,15.07
2023-02-18T05:09:26.782Z,15.33
2023-02-18T05:11:54.007Z,22.73
2023-02-18T05:14:20.779Z,20.13
2023-02-18T05:16:47.758Z,18.90
2023-02-18T05:19:16.434Z,17.90
2023-02-18T05:21:44.034Z,22.60
2023-02-18T05:24:10.892Z,15.83
2023-02-18T05:26:37.989Z,18.07
2023-02-18T05:29:05.012Z,17.53
2023-02-18T05:31:32.626Z,16.57
2023-02-18T05:33:59.667Z,17.90
2023-02-18T05:36:26.630Z,20.77
2023-02-18T05:38:53.379Z,28.40
2023-02-18T05:41:20.840Z,27.77
2023-02-18T05:44:06.430Z,22.93
2023-02-18T05:46:33.803Z,28.93
2023-02-18T05:49:00.685Z,20.60
2023-02-18T05:51:27.776Z,25.50
2023-02-18T05:53:55.663Z,22.67
2023-02-18T05:56:23.162Z,12.83
2023-02-18T05:58:50.024Z,21.23
2023-02-18T06:01:17.205Z,16.23
2023-02-18T06:03:44.003Z,18.73
2023-02-18T06:06:11.471Z,17.97
2023-02-18T06:08:38.474Z,18.27
2023-02-18T06:11:05.472Z,17.33
2023-02-18T06:13:32.360Z,17.50
2023-02-18T06:15:59.412Z,17.00
2023-02-18T06:18:26.276Z,18.23
2023-02-18T06:20:53.311Z,19.60
2023-02-18T06:23:20.064Z,19.50
2023-02-18T06:25:49.514Z,21.33
2023-02-18T06:28:17.289Z,19.33
2023-02-18T06:30:45.355Z,16.03
2023-02-18T06:33:12.926Z,19.97
2023-02-18T06:35:40.148Z,21.40
2023-02-18T06:38:06.927Z,23.17
2023-02-18T06:40:34.051Z,17.67
2023-02-18T06:43:00.760Z,21.67
2023-02-18T06:45:27.829Z,22.20
2023-02-18T06:47:54.642Z,21.87
2023-02-18T06:50:21.652Z,19.87
2023-02-18T06:52:48.685Z,15.43
2023-02-18T06:55:15.700Z,18.30
2023-02-18T06:57:42.485Z,26.37
2023-02-18T07:00:10.470Z,19.00
2023-02-18T07:02:37.248Z,16.60
2023-02-18T07:05:05.562Z,19.20
2023-02-18T07:07:32.444Z,25.80
2023-02-18T07:09:59.483Z,16.37
2023-02-18T07:12:26.296Z,19.17
2023-02-18T07:14:53.344Z,20.10
2023-02-18T07:17:20.158Z,20.10
2023-02-18T07:19:47.245Z,18.30
2023-02-18T07:22:14.276Z,28.30
2023-02-18T07:24:41.610Z,15.70
2023-02-18T07:27:08.445Z,19.30
2023-02-18T07:29:35.540Z,22.40
2023-02-18T07:32:02.375Z,17.30
2023-02-18T07:34:29.567Z,18.50
2023-02-18T07:36:56.401Z,28.53
2023-02-18T07:39:23.436Z,28.33
2023-02-18T07:41:50.323Z,21.80
2023-02-18T07:44:17.362Z,23.97
2023-02-18T07:46:44.890Z,26.10
2023-02-18T07:49:13.062Z,19.67
2023-02-18T07:51:40.358Z,22.50
2023-02-18T07:54:07.410Z,20.53
2023-02-18T07:56:34.271Z,28.03
2023-02-18T07:59:01.382Z,20.83
2023-02-18T08:01:28.261Z,21.33
2023-02-18T08:03:55.591Z,18.90
2023-02-18T08:06:33.249Z,21.03
2023-02-18T08:09:00.559Z,18.53
2023-02-18T08:11:27.393Z,23.67
2023-02-18T08:13:54.433Z,15.40
2023-02-18T08:16:22.209Z,14.77
2023-02-18T08:18:50.735Z,21.70
2023-02-18T08:21:18.832Z,20.53
2023-02-18T08:23:46.463Z,17.73
2023-02-18T08:26:14.116Z,22.93
2023-02-18T08:28:45.920Z,23.37
2023-02-18T08:31:21.683Z,22.00
2023-02-18T08:33:49.610Z,24.63
2023-02-18T08:36:16.368Z,16.10
2023-02-18T08:38:43.781Z,19.20
2023-02-18T08:41:10.884Z,24.20
2023-02-18T08:43:38.141Z,24.97
2023-02-18T08:46:05.638Z,24.23
2023-02-18T08:48:33.024Z,20.17
2023-02-18T08:50:59.796Z,18.07
2023-02-18T08:53:27.705Z,17.80
2023-02-18T08:55:54.519Z,23.63
2023-02-18T08:58:21.753Z,24.83
2023-02-18T09:00:48.583Z,18.37
2023-02-18T09:03:16.285Z,21.63
2023-02-18T09:05:43.308Z,18.57
2023-02-18T09:08:10.690Z,17.27
2023-02-18T09:10:39.393Z,25.23
2023-02-18T09:13:06.665Z,17.37
2023-02-18T09:15:33.533Z,21.90
2023-02-18T09:18:00.565Z,25.00
2023-02-18T09:20:27.845Z,21.73
2023-02-18T09:22:54.888Z,24.53
2023-02-18T09:25:21.819Z,18.93
2023-02-18T09:27:48.895Z,18.73
2023-02-18T09:30:15.837Z,27.77
2023-02-18T09:32:42.881Z,18.10
2023-02-18T09:35:09.867Z,30.60
2023-02-18T09:37:38.184Z,29.50
2023-02-18T09:40:05.503Z,18.07
2023-02-18T09:42:34.972Z,15.97
2023-02-18T09:45:08.332Z,23.37
2023-02-18T09:47:39.206Z,24.03
2023-02-18T09:50:32.500Z,28.13
2023-02-18T09:53:02.282Z,21.80
2023-02-18T09:55:36.242Z,21.60
2023-02-18T09:58:05.065Z,19.67
2023-02-18T10:00:33.905Z,21.70
2023-02-18T10:03:06.256Z,20.53
2023-02-18T10:05:36.364Z,20.87
2023-02-18T10:08:15.860Z,22.83
2023-02-18T10:10:45.705Z,17.53
2023-02-18T10:13:29.293Z,17.03
2023-02-18T10:15:56.066Z,20.97
2023-02-18T10:18:33.898Z,33.87
2023-02-18T10:21:04.619Z,30.33
2023-02-18T10:23:35.922Z,26.07
2023-02-18T10:26:10.688Z,25.80
2023-02-18T10:28:38.150Z,28.67
2023-02-18T10:31:11.525Z,22.87
2023-02-18T10:34:04.393Z,31.70
2023-02-18T10:36:47.948Z,22.70
2023-02-18T10:39:20.934Z,23.93
2023-02-18T10:41:58.977Z,28.17
2023-02-18T10:45:00.574Z,19.37
2023-02-18T10:47:53.859Z,20.17
2023-02-18T10:50:31.882Z,17.23
2023-02-18T10:53:11.391Z,24.27
2023-02-18T10:55:44.333Z,21.47
2023-02-18T10:58:34.124Z,18.60
2023-02-18T11:01:05.535Z,26.97
2023-02-18T11:03:43.056Z,22.13
2023-02-18T11:06:40.960Z,23.07
2023-02-18T11:09:23.229Z,17.03
2023-02-18T11:11:53.687Z,20.83
2023-02-18T11:14:43.026Z,25.40
2023-02-18T11:17:17.574Z,24.53
2023-02-18T11:19:52.720Z,26.13
2023-02-18T11:22:22.879Z,19.40
2023-02-18T11:24:58.110Z,22.30
2023-02-18T11:27:25.133Z,23.50
2023-02-18T11:29:56.175Z,18.40
2023-02-18T11:32:27.497Z,15.30
2023-02-18T11:34:54.530Z,17.10
2023-02-18T11:37:23.274Z,22.67
2023-02-18T11:39:53.134Z,19.43
2023-02-18T11:42:23.337Z,24.07
2023-02-18T11:44:56.654Z,25.07
2023-02-18T11:47:36.653Z,21.37
2023-02-18T11:50:09.609Z,23.53
2023-02-18T11:52:40.234Z,18.20
2023-02-18T11:55:21.373Z,20.70
2023-02-18T11:57:56.235Z,19.97
2023-02-18T12:00:43.530Z,19.17
2023-02-18T12:03:46.093Z,19.17
2023-02-18T12:06:18.472Z,22.70
2023-02-18T12:08:56.641Z,25.77
2023-02-18T12:11:35.909Z,24.93
2023-02-18T12:14:03.502Z,19.57
2023-02-18T12:16:45.421Z,16.83
2023-02-18T12:19:38.109Z,25.00
2023-02-18T12:22:16.988Z,17.40
2023-02-18T12:25:02.647Z,16.47
2023-02-18T12:28:04.711Z,17.13
2023-02-18T12:30:58.199Z,18.83
2023-02-18T12:33:36.000Z,18.90
2023-02-18T12:36:15.906Z,19.43
2023-02-18T12:39:12.645Z,22.30
2023-02-18T12:41:42.651Z,20.57
2023-02-18T12:44:35.904Z,14.20
2023-02-18T12:47:38.265Z,18.17
2023-02-18T12:50:15.309Z,14.73
2023-02-18T12:52:51.462Z,14.33
2023-02-18T12:55:51.620Z,15.27
2023-02-18T12:58:39.630Z,19.57
2023-02-18T13:01:24.552Z,24.70
2023-02-18T13:04:10.145Z,20.13
2023-02-18T13:07:14.619Z,17.63
2023-02-18T13:09:57.121Z,20.13
2023-02-18T13:12:37.938Z,17.67
2023-02-18T13:15:16.148Z,14.53
2023-02-18T13:17:43.867Z,18.33
2023-02-18T13:20:28.958Z,22.40
2023-02-18T13:22:56.813Z,24.23
2023-02-18T13:25:24.960Z,25.40
2023-02-18T13:28:09.732Z,19.50
2023-02-18T13:31:01.500Z,18.97
2023-02-18T13:33:44.767Z,19.00
2023-02-18T13:36:36.477Z,17.97
2023-02-18T13:39:08.644Z,17.37
2023-02-18T13:41:38.972Z,17.33
2023-02-18T13:44:30.020Z,22.10
2023-02-18T13:46:59.036Z,19.80
2023-02-18T13:49:37.927Z,17.87
2023-02-18T13:52:05.637Z,19.47
2023-02-18T13:54:44.818Z,12.93
2023-02-18T13:57:21.823Z,21.30
2023-02-18T13:59:57.955Z,15.57
2023-02-18T14:02:25.193Z,17.63
2023-02-18T14:05:11.246Z,15.23
2023-02-18T14:07:50.089Z,14.90
2023-02-18T14:10:16.827Z,12.83
2023-02-18T14:13:00.724Z,20.20
2023-02-18T14:15:27.664Z,17.27
2023-02-18T14:18:12.867Z,20.20
2023-02-18T14:20:39.572Z,12.63
2023-02-18T14:23:19.012Z,13.37
2023-02-18T14:25:57.233Z,12.40
2023-02-18T14:28:36.374Z,11.80
2023-02-18T14:31:12.836Z,10.77
2023-02-18T14:33:44.396Z,9.00
2023-02-18T14:36:25.357Z,15.27
2023-02-18T14:39:09.685Z,14.57
2023-02-18T14:41:43.308Z,18.97
2023-02-18T14:44:27.992Z,10.17
2023-02-18T14:47:29.040Z,12.67
2023-02-18T14:49:59.868Z,9.70
2023-02-18T14:52:44.845Z,9.53
2023-02-18T14:55:20.542Z,10.40
2023-02-18T14:57:54.763Z,11.80
2023-02-18T15:00:32.076Z,17.50
2023-02-18T15:03:00.880Z,16.17
2023-02-18T15:05:32.407Z,15.73
2023-02-18T15:08:04.459Z,17.37
2023-02-18T15:10:49.808Z,11.87
2023-02-18T15:13:28.047Z,11.63
2023-02-18T15:16:03.617Z,13.27
2023-02-18T15:18:30.397Z,16.23
2023-02-18T15:20:57.613Z,21.90
2023-02-18T15:23:24.683Z,17.30
2023-02-18T15:25:53.629Z,14.50
2023-02-18T15:28:34.231Z,13.13
2023-02-18T15:31:04.039Z,13.73
2023-02-18T15:33:30.877Z,7.87
2023-02-18T15:36:13.724Z,6.30
2023-02-18T15:38:44.472Z,6.40
2023-02-18T15:41:14.031Z,8.53
2023-02-18T15:43:53.085Z,9.73
2023-02-18T15:46:22.633Z,11.73
2023-02-18T15:48:53.323Z,20.80
2023-02-18T15:51:25.478Z,13.07
2023-02-18T15:53:56.489Z,25.33
2023-02-18T15:56:37.658Z,19.50
2023-02-18T15:59:15.121Z,23.27
2023-02-18T16:01:42.769Z,13.63
2023-02-18T16:04:14.966Z,12.27
2023-02-18T16:06:48.772Z,15.03
2023-02-18T16:09:22.484Z,12.57
2023-02-18T16:12:02.998Z,15.13
2023-02-18T16:14:34.601Z,8.50
2023-02-18T16:17:23.638Z,7.90
2023-02-18T16:20:18.204Z,12.23
2023-02-18T16:22:47.190Z,14.17
2023-02-18T16:25:14.369Z,14.97
2023-02-18T16:28:13.667Z,15.97
2023-02-18T16:30:45.251Z,14.10
2023-02-18T16:33:12.910Z,11.63
2023-02-18T16:35:49.588Z,13.13
2023-02-18T16:38:22.579Z,15.23
2023-02-18T16:40:49.949Z,16.77
2023-02-18T16:43:19.717Z,14.23
2023-02-18T16:45:56.934Z,19.43
2023-02-18T16:48:30.027Z,36.53
2023-02-18T16:50:59.637Z,25.67
2023-02-18T16:53:26.650Z,28.67
2023-02-18T16:55:53.563Z,33.50
2023-02-18T16:58:20.561Z,35.13
2023-02-18T17:00:50.092Z,36.40
2023-02-18T17:03:17.219Z,43.73
2023-02-18T17:05:44.004Z,28.43
2023-02-18T17:08:17.211Z,39.13
2023-02-18T17:10:44.985Z,25.97
2023-02-18T17:13:18.429Z,21.77
2023-02-18T17:15:47.788Z,39.23
2023-02-18T17:18:16.148Z,28.90
2023-02-18T17:20:43.356Z,40.00
2023-02-18T17:23:21.119Z,24.67
2023-02-18T17:25:48.960Z,20.90
2023-02-18T17:28:19.058Z,14.30
2023-02-18T17:30:50.765Z,27.93
2023-02-18T17:33:19.205Z,18.47
2023-02-18T17:35:46.279Z,22.27
2023-02-18T17:38:15.420Z,32.23
2023-02-18T17:40:42.886Z,20.80
2023-02-18T17:43:15.203Z,28.83
2023-02-18T17:45:49.779Z,23.57
2023-02-18T17:48:16.926Z,25.00
2023-02-18T17:50:43.663Z,16.43
2023-02-18T17:53:12.340Z,22.27
2023-02-18T17:55:40.503Z,20.23
2023-02-18T17:58:07.919Z,20.83
2023-02-18T18:00:47.230Z,13.53
2023-02-18T18:03:14.862Z,14.23
2023-02-18T18:05:44.353Z,14.57
2023-02-18T18:08:12.383Z,11.30
2023-02-18T18:10:41.606Z,12.80
2023-02-18T18:13:18.094Z,23.70
2023-02-18T18:15:45.482Z,15.53
2023-02-18T18:18:13.140Z,15.50
2023-02-18T18:20:43.655Z,15.50
2023-02-18T18:23:16.107Z,14.10
2023-02-18T18:25:45.586Z,15.80
2023-02-18T18:28:13.359Z,15.63
2023-02-18T18:30:43.660Z,22.03
2023-02-18T18:33:21.507Z,15.90
2023-02-18T18:35:50.510Z,18.03
2023-02-18T18:38:22.213Z,17.10
2023-02-18T18:40:50.399Z,18.43
2023-02-18T18:43:33.065Z,17.60
2023-02-18T18:46:00.785Z,13.97
2023-02-18T18:48:29.558Z,19.80
2023-02-18T18:50:57.771Z,20.83
2023-02-18T18:53:28.097Z,24.23
2023-02-18T18:55:58.398Z,23.47
2023-02-18T18:58:26.127Z,23.20
2023-02-18T19:00:55.986Z,27.20
2023-02-18T19:03:24.647Z,28.80
2023-02-18T19:05:52.269Z,30.10
2023-02-18T19:08:20.365Z,31.33
2023-02-18T19:10:48.465Z,24.90
2023-02-18T19:13:26.717Z,24.57
2023-02-18T19:16:01.695Z,24.47
2023-02-18T19:18:29.947Z,18.43
2023-02-18T19:20:56.832Z,19.60
2023-02-18T19:23:23.841Z,17.87
2023-02-18T19:25:50.600Z,20.73
2023-02-18T19:28:18.913Z,18.90
2023-02-18T19:30:47.525Z,27.60
2023-02-18T19:33:15.298Z,30.57
2023-02-18T19:35:43.044Z,22.30
2023-02-18T19:38:15.853Z,23.00
2023-02-18T19:40:44.397Z,21.33
2023-02-18T19:43:12.173Z,21.47
2023-02-18T19:45:47.356Z,20.33
2023-02-18T19:48:15.597Z,16.77
2023-02-18T19:50:43.544Z,20.00
2023-02-18T19:53:11.160Z,19.13
2023-02-18T19:55:38.504Z,17.33
2023-02-18T19:58:06.167Z,15.40
2023-02-18T20:00:33.116Z,20.50
2023-02-18T20:03:00.323Z,17.53
2023-02-18T20:05:27.287Z,15.83
2023-02-18T20:07:54.428Z,16.70
2023-02-18T20:10:22.518Z,15.33
2023-02-18T20:12:54.248Z,18.90
2023-02-18T20:15:22.443Z,26.23
2023-02-18T20:17:49.980Z,22.50
2023-02-18T20:20:17.769Z,21.83
2023-02-18T20:22:45.310Z,22.33
2023-02-18T20:25:12.198Z,21.27
2023-02-18T20:27:47.950Z,15.17
2023-02-18T20:30:21.556Z,19.60
2023-02-18T20:32:48.825Z,19.70
2023-02-18T20:35:15.690Z,24.00
2023-02-18T20:37:42.647Z,25.33
2023-02-18T20:40:09.727Z,24.97
2023-02-18T20:42:36.816Z,30.27
2023-02-18T20:45:03.791Z,25.20
2023-02-18T20:47:30.798Z,26.53
2023-02-18T20:49:57.737Z,20.57
2023-02-18T20:52:24.777Z,21.37
2023-02-18T20:54:51.551Z,27.67
2023-02-18T20:57:18.570Z,23.73
2023-02-18T20:59:45.318Z,32.17
2023-02-18T21:02:16.688Z,36.40
2023-02-18T21:04:45.055Z,26.53
2023-02-18T21:07:12.197Z,17.70
2023-02-18T21:09:39.039Z,15.23
2023-02-18T21:12:06.165Z,19.47
2023-02-18T21:14:32.911Z,18.03
2023-02-18T21:17:00.005Z,21.07
2023-02-18T21:19:26.846Z,19.37
2023-02-18T21:21:53.925Z,24.73
2023-02-18T21:24:20.758Z,21.77
2023-02-18T21:26:47.823Z,19.80
2023-02-18T21:29:16.959Z,17.53
2023-02-18T21:31:44.416Z,14.93
2023-02-18T21:34:13.547Z,16.17
2023-02-18T21:36:41.120Z,14.50
2023-02-18T21:39:09.613Z,14.93
2023-02-18T21:41:40.457Z,15.13
2023-02-18T21:44:08.951Z,17.63
2023-02-18T21:46:36.783Z,19.17
2023-02-18T21:49:09.515Z,21.20
2023-02-18T21:51:56.654Z,18.00
2023-02-18T21:54:37.016Z,17.17
2023-02-18T21:57:05.840Z,15.00
2023-02-18T21:59:34.702Z,12.63
2023-02-18T22:02:03.290Z,16.93
2023-02-18T22:04:32.629Z,22.50
2023-02-18T22:07:00.101Z,18.90
2023-02-18T22:09:27.239Z,19.53
2023-02-18T22:11:54.456Z,21.57
2023-02-18T22:14:21.542Z,20.97
2023-02-18T22:16:48.849Z,16.83
2023-02-18T22:19:15.691Z,15.80
2023-02-18T22:21:43.047Z,12.87
2023-02-18T22:24:12.640Z,11.57
2023-02-18T22:26:40.179Z,12.57
2023-02-18T22:29:07.076Z,12.93
2023-02-18T22:31:34.233Z,9.83
2023-02-18T22:34:01.299Z,14.07
2023-02-18T22:36:29.294Z,22.63
2023-02-18T22:38:56.245Z,10.10
2023-02-18T22:41:24.858Z,14.67
2023-02-18T22:43:57.142Z,19.03
2023-02-18T22:46:25.255Z,13.57
2023-02-18T22:48:55.435Z,19.07
2023-02-18T22:51:25.228Z,13.27
2023-02-18T22:53:54.112Z,11.93
2023-02-18T22:56:22.332Z,15.23
2023-02-18T22:58:51.459Z,16.87
2023-02-18T23:01:23.814Z,17.40
2023-02-18T23:03:52.385Z,16.43
2023-02-18T23:06:20.934Z,11.20
2023-02-18T23:08:47.956Z,14.80
2023-02-18T23:11:18.041Z,12.50
2023-02-18T23:13:45.449Z,14.90
2023-02-18T23:16:14.752Z,20.40
2023-02-18T23:18:41.859Z,14.20
2023-02-18T23:21:17.340Z,12.50
2023-02-18T23:23:46.024Z,15.13
2023-02-18T23:26:13.823Z,14.50
2023-02-18T23:28:50.222Z,13.93
2023-02-18T23:31:20.071Z,15.77
2023-02-18T23:33:49.546Z,12.27
2023-02-18T23:36:20.516Z,8.80
2023-02-18T23:38:53.108Z,14.80
2023-02-18T23:41:20.842Z,14.30
2023-02-18T23:43:48.723Z,12.57
2023-02-18T23:46:19.198Z,14.67
2023-02-18T23:48:46.218Z,15.67
2023-02-18T23:51:15.689Z,13.73
2023-02-18T23:53:43.070Z,11.80
2023-02-18T23:56:16.285Z,13.07
2023-02-18T23:58:45.959Z,11.97
